Data for 02/27/2007

Time Sea-Level Adjusted Pressure Absolute Pressure Temperature Relative Humidity Dew Point   
(mb) (inHg) (mb) (inHg) (C) (F) (%) (C) (F)
00:05 1006 29.71 835 24.66 -6.1 21 57 -13.4 7.8
00:10 1006 29.71 835 24.66 -5.8 21.5 55 -13.6 7.6
00:15 1006 29.71 835 24.66 -5.9 21.4 56 -13.4 7.8
00:20 1006 29.71 835 24.66 -6.1 21 57 -13.4 7.9
00:25 1005 29.68 835 24.66 -6.4 20.6 58 -13.4 7.9
00:30 1005 29.68 835 24.66 -6.5 20.4 58 -13.4 7.8
00:35 1005 29.68 835 24.66 -6.5 20.3 58 -13.5 7.6
00:40 1005 29.68 835 24.66 -6.7 19.9 59 -13.6 7.6
00:45 1005 29.68 835 24.66 -6.9 19.6 59 -13.7 7.3
00:50 1005 29.68 835 24.66 -6.7 20 57 -13.8 7.1
00:55 1005 29.68 835 24.66 -6.4 20.4 57 -13.6 7.5
01:00 1005 29.68 835 24.66 -6.3 20.6 56 -13.6 7.4
01:05 1005 29.68 835 24.66 -6.3 20.6 56 -13.6 7.4
01:10 1005 29.68 835 24.66 -6.5 20.4 56 -13.8 7.2
01:15 1005 29.68 835 24.66 -6.7 19.9 58 -13.7 7.4
01:20 1005 29.68 835 24.66 -7.4 18.7 60 -14 6.9
01:25 1005 29.68 835 24.66 -7.7 18.2 60 -14 6.7
01:30 1005 29.68 835 24.66 -7.4 18.6 60 -14 6.9
01:35 1005 29.68 835 24.66 -7.4 18.7 60 -13.9 7
01:40 1005 29.68 834 24.63 -7.4 18.7 59 -14 6.8
01:45 1005 29.68 834 24.63 -7.3 18.8 59 -14 6.9
01:50 1005 29.68 834 24.63 -7.1 19.2 59 -13.9 7
01:55 1005 29.68 834 24.63 -7.2 19.1 59 -14 6.9
02:00 1005 29.68 834 24.63 -7.6 18.4 60 -14.1 6.7
02:05 1005 29.68 834 24.63 -7.6 18.2 60 -14.1 6.6
02:10 1005 29.68 834 24.63 -7.8 18 60 -14.2 6.5
02:15 1005 29.68 834 24.63 -7.8 17.9 60 -14.3 6.3
02:20 1005 29.68 834 24.63 -7.8 18 60 -14.2 6.4
02:25 1005 29.68 834 24.63 -7.9 17.7 61 -14.1 6.6
02:30 1005 29.68 834 24.63 -7.8 17.9 60 -14.3 6.3
02:35 1005 29.68 834 24.63 -7.8 18 60 -14.2 6.4
02:40 1005 29.68 834 24.63 -8.2 17.3 62 -14.3 6.3
02:45 1005 29.68 834 24.63 -8.4 16.8 61 -14.6 5.7
02:50 1005 29.68 834 24.63 -8.2 17.2 61 -14.5 6
02:55 1005 29.68 834 24.63 -8.2 17.2 62 -14.4 6.2
03:00 1005 29.68 834 24.63 -7.7 18.1 60 -14.2 6.5
03:05 1005 29.68 834 24.63 -7.5 18.5 60 -14 6.8
03:10 1005 29.68 834 24.63 -7.4 18.6 60 -14 6.9
03:15 1004 29.65 834 24.63 -7.2 19.1 58 -14 6.8
03:20 1004 29.65 834 24.63 -7.6 18.4 61 -13.9 6.9
03:25 1004 29.65 834 24.63 -7.5 18.5 60 -14.1 6.7
03:30 1004 29.65 833 24.6 -7.5 18.5 60 -13.9 6.9
03:35 1004 29.65 833 24.6 -7.5 18.5 60 -14 6.8
03:40 1004 29.65 833 24.6 -7.6 18.3 61 -14 6.9
03:45 1004 29.65 833 24.6 -7.8 18 61 -14 6.9
03:50 1004 29.65 833 24.6 -7.9 17.7 62 -14 6.7
03:55 1004 29.65 833 24.6 -7.9 17.8 62 -14 6.8
04:00 1004 29.65 833 24.6 -7.9 17.9 62 -13.9 6.9
04:05 1004 29.65 833 24.6 -7.8 17.9 62 -13.9 7
04:10 1004 29.65 833 24.6 -7.9 17.9 63 -13.8 7.1
04:15 1003 29.62 833 24.6 -7.8 17.9 62 -13.8 7.2
04:20 1004 29.65 833 24.6 -7.7 18.2 62 -13.8 7.2
04:25 1003 29.62 833 24.6 -7.5 18.5 61 -13.7 7.3
04:30 1003 29.62 833 24.6 -7.6 18.4 63 -13.5 7.6
04:35 1003 29.62 833 24.6 -7.2 19.1 61 -13.5 7.8
04:40 1003 29.62 833 24.6 -7.4 18.7 62 -13.4 7.9
04:45 1003 29.62 833 24.6 -7.4 18.7 61 -13.8 7.2
04:50 1003 29.62 833 24.6 -7.2 19 60 -13.7 7.4
04:55 1003 29.62 832 24.57 -7.1 19.2 61 -13.5 7.7
05:00 1003 29.62 832 24.57 -6.9 19.6 59 -13.7 7.3
05:05 1003 29.62 832 24.57 -6.5 20.2 58 -13.5 7.7
05:10 1003 29.62 832 24.57 -6.5 20.3 58 -13.5 7.8
05:15 1003 29.62 832 24.57 -6.3 20.7 58 -13.3 8.1
05:20 1003 29.62 832 24.57 -6.4 20.4 60 -13.1 8.5
05:25 1003 29.62 832 24.57 -6.4 20.4 59 -13.1 8.4
05:30 1003 29.62 832 24.57 -6.4 20.5 59 -13.1 8.4
05:35 1003 29.62 832 24.57 -6.5 20.3 60 -13.1 8.5
05:40 1003 29.62 832 24.57 -6.5 20.3 61 -12.9 8.7
05:45 1003 29.62 832 24.57 -6.3 20.6 60 -12.9 8.8
05:50 1003 29.62 832 24.57 -6.3 20.7 60 -12.8 8.9
05:55 1003 29.62 832 24.57 -6 21.2 61 -12.4 9.7
06:00 1003 29.62 832 24.57 -6.2 20.9 61 -12.5 9.5
06:05 1003 29.62 832 24.57 -6.2 20.8 60 -12.8 9
06:10 1002 29.59 832 24.57 -6.1 20.9 60 -12.6 9.2
06:15 1002 29.59 832 24.57 -6 21.2 60 -12.6 9.3
06:20 1002 29.59 831 24.54 -5.7 21.8 58 -12.6 9.3
06:25 1002 29.59 831 24.54 -5.5 22.1 59 -12.3 9.9
06:30 1002 29.59 831 24.54 -5.7 21.7 59 -12.5 9.5
06:35 1002 29.59 831 24.54 -5.5 22 59 -12.4 9.8
06:40 1002 29.59 831 24.54 -5.4 22.3 59 -12.2 10
06:45 1002 29.59 831 24.54 -5 23 57 -12.3 9.9
06:50 1001 29.56 831 24.54 -4.5 23.9 55 -12.1 10.2
06:55 1001 29.56 830 24.51 -4.3 24.3 55 -12.1 10.3
07:00 1001 29.56 831 24.54 -4.2 24.5 54 -12.2 10.1
07:05 1001 29.56 830 24.51 -4.1 24.6 54 -12.1 10.3
07:10 1002 29.59 831 24.54 -4 24.7 53 -12.2 10.1
07:15 1002 29.59 831 24.54 -4.1 24.6 54 -12 10.4
07:20 1001 29.56 830 24.51 -4.2 24.4 57 -11.6 11.2
07:25 1001 29.56 830 24.51 -4.4 24 58 -11.5 11.3
07:30 1001 29.56 830 24.51 -4.5 23.9 58 -11.5 11.2
07:35 1001 29.56 830 24.51 -4.6 23.8 58 -11.6 11.2
07:40 1001 29.56 830 24.51 -4.7 23.6 58 -11.6 11
07:45 1001 29.56 830 24.51 -4.8 23.4 60 -11.4 11.5
07:50 1001 29.56 830 24.51 -4.7 23.5 58 -11.7 10.9
07:55 1001 29.56 830 24.51 -4.7 23.6 57 -11.9 10.6
08:00 1001 29.56 830 24.51 -4.7 23.6 58 -11.7 10.9
08:05 1001 29.56 830 24.51 -4.6 23.7 55 -12.2 10
08:10 1001 29.56 830 24.51 -4.5 23.9 54 -12.4 9.6
08:15 1001 29.56 830 24.51 -4.3 24.2 53 -12.5 9.6
08:20 1001 29.56 830 24.51 -4.2 24.4 52 -12.6 9.3
08:25 1001 29.56 830 24.51 -4.2 24.4 53 -12.5 9.6
08:30 1001 29.56 831 24.54 -4.1 24.6 52 -12.6 9.3
08:35 1002 29.59 831 24.54 -4.2 24.5 52 -12.7 9.1
08:40 1002 29.59 831 24.54 -4.6 23.7 59 -11.4 11.5
08:45 1002 29.59 831 24.54 -6.2 20.9 64 -11.9 10.6
08:50 1002 29.59 831 24.54 -6.6 20.2 64 -12.3 9.9
08:55 1002 29.59 831 24.54 -6.5 20.3 64 -12.3 9.8
09:00 1002 29.59 831 24.54 -6.7 19.9 65 -12.3 9.9
09:05 1002 29.59 831 24.54 -6.6 20.2 63 -12.4 9.6
09:10 1001 29.56 831 24.54 -6.3 20.6 61 -12.7 9.2
09:15 1001 29.56 831 24.54 -5.8 21.5 58 -12.9 8.7
09:20 1001 29.56 830 24.51 -5.5 22.1 59 -12.3 9.9
09:25 1001 29.56 830 24.51 -5.5 22.1 58 -12.6 9.4
09:30 1001 29.56 830 24.51 -5.5 22.1 59 -12.3 9.8
09:35 1001 29.56 830 24.51 -5.4 22.2 59 -12.3 9.9
09:40 1001 29.56 830 24.51 -4.8 23.3 58 -12 10.5
09:45 1001 29.56 830 24.51 -4.8 23.4 57 -12 10.5
09:50 1001 29.56 830 24.51 -4.5 23.9 58 -11.6 11.2
09:55 1001 29.56 830 24.51 -3.9 25 58 -10.9 12.3
10:00 1001 29.56 830 24.51 -3.9 25.1 58 -10.9 12.5
10:05 1001 29.56 830 24.51 -3.7 25.3 58 -10.9 12.4
10:10 1001 29.56 830 24.51 -3.6 25.5 56 -11.2 11.9
10:15 1001 29.56 830 24.51 -3.6 25.6 56 -11 12.1
10:20 1001 29.56 830 24.51 -3.3 26 55 -11 12.2
10:25 1001 29.56 830 24.51 -2.9 26.9 54 -10.9 12.4
10:30 1000 29.53 830 24.51 -2.7 27.2 55 -10.5 13
10:35 1001 29.56 830 24.51 -2.3 27.8 54 -10.4 13.3
10:40 1001 29.56 830 24.51 -2.1 28.1 53 -10.4 13.3
10:45 1001 29.56 830 24.51 -2.5 27.5 54 -10.5 13.2
10:50 1001 29.56 830 24.51 -2.4 27.6 54 -10.5 13.1
10:55 1001 29.56 830 24.51 -3 26.6 59 -9.8 14.3
11:00 1001 29.56 830 24.51 -3.5 25.6 60 -10.2 13.6
11:05 1001 29.56 830 24.51 -3.3 26.1 62 -9.7 14.6
11:10 1001 29.56 830 24.51 -3.7 25.3 65 -9.3 15.2
11:15 1001 29.56 830 24.51 -4.1 24.6 69 -9 15.7
11:20 1001 29.56 830 24.51 -4.3 24.2 68 -9.4 15.1
11:25 1001 29.56 830 24.51 -3.8 25.1 67 -9 15.8
11:30 1001 29.56 830 24.51 -3.3 26.1 67 -8.5 16.7
11:35 1001 29.56 830 24.51 -3.5 25.7 69 -8.4 16.9
11:40 1001 29.56 830 24.51 -3.5 25.8 70 -8.2 17.3
11:45 1001 29.56 830 24.51 -3.2 26.2 69 -8.1 17.4
11:50 1001 29.56 830 24.51 -3.1 26.4 68 -8.3 17.1
11:55 1001 29.56 830 24.51 -3.4 25.9 69 -8.2 17.2
12:00 1001 29.56 830 24.51 -3.7 25.4 75 -7.4 18.6
12:05 1001 29.56 830 24.51 -3.6 25.4 73 -7.9 17.8
12:10 1001 29.56 830 24.51 -3.7 25.4 75 -7.4 18.6
12:15 1001 29.56 830 24.51 -3.7 25.3 76 -7.3 18.8
12:20 1001 29.56 830 24.51 -3.6 25.5 77 -7.1 19.2
12:25 1001 29.56 830 24.51 -3.6 25.6 79 -6.7 19.9
12:30 1001 29.56 830 24.51 -4.1 24.6 81 -6.9 19.5
12:35 1001 29.56 830 24.51 -4.1 24.6 82 -6.8 19.8
12:40 1001 29.56 830 24.51 -3.8 25.2 80 -6.7 19.9
12:45 1001 29.56 830 24.51 -3.4 25.9 79 -6.6 20.2
12:50 1001 29.56 830 24.51 -3.1 26.4 78 -6.4 20.4
12:55 1001 29.56 830 24.51 -3.2 26.3 78 -6.5 20.3
13:00 1001 29.56 830 24.51 -3.2 26.2 78 -6.5 20.3
13:05 1001 29.56 831 24.54 -3.7 25.3 81 -6.6 20.1
13:10 1001 29.56 831 24.54 -3.7 25.4 80 -6.6 20.1
13:15 1001 29.56 831 24.54 -3.4 26 79 -6.5 20.3
13:20 1001 29.56 831 24.54 -3.6 25.6 80 -6.5 20.3
13:25 1001 29.56 831 24.54 -3.5 25.8 79 -6.7 20
13:30 1001 29.56 831 24.54 -3.5 25.7 79 -6.6 20.2
13:35 1002 29.59 831 24.54 -3.3 26 77 -6.7 19.9
13:40 1002 29.59 831 24.54 -3.3 26 76 -7 19.3
13:45 1001 29.56 831 24.54 -3.7 25.3 79 -6.9 19.6
13:50 1001 29.56 831 24.54 -3.9 24.9 80 -7 19.5
13:55 1002 29.59 831 24.54 -4.2 24.4 78 -7.5 18.4
14:00 1002 29.59 831 24.54 -3.4 25.9 77 -6.8 19.7
14:05 1002 29.59 831 24.54 -2.9 26.9 77 -6.4 20.5
14:10 1002 29.59 831 24.54 -3 26.6 78 -6.3 20.7
14:15 1002 29.59 831 24.54 -3.4 25.8 84 -5.8 21.5
14:20 1002 29.59 831 24.54 -3.4 25.9 85 -5.6 21.9
14:25 1002 29.59 831 24.54 -3.5 25.7 86 -5.6 22
14:30 1002 29.59 831 24.54 -3.7 25.4 87 -5.6 21.9
14:35 1002 29.59 831 24.54 -3.9 25 89 -5.5 22.1
14:40 1002 29.59 831 24.54 -3.8 25.2 89 -5.3 22.4
14:45 1002 29.59 831 24.54 -3.6 25.5 88 -5.4 22.4
14:50 1002 29.59 831 24.54 -3.5 25.6 87 -5.3 22.4
14:55 1002 29.59 831 24.54 -3.5 25.7 85 -5.7 21.8
15:00 1002 29.59 831 24.54 -3.4 25.8 84 -5.8 21.6
15:05 1002 29.59 831 24.54 -3.8 25.2 85 -6 21.3
15:10 1002 29.59 831 24.54 -4.3 24.3 88 -6 21.2
15:15 1002 29.59 831 24.54 -4.5 23.9 89 -6 21.1
15:20 1002 29.59 831 24.54 -4.2 24.4 88 -5.8 21.5
15:25 1002 29.59 831 24.54 -3.6 25.4 86 -5.7 21.8
15:30 1002 29.59 831 24.54 -3.5 25.6 86 -5.5 22.1
15:35 1002 29.59 831 24.54 -3.3 26 85 -5.6 22
15:40 1002 29.59 831 24.54 -3.3 26 86 -5.4 22.3
15:45 1002 29.59 831 24.54 -3.1 26.5 85 -5.3 22.5
15:50 1002 29.59 831 24.54 -3.4 25.9 86 -5.4 22.3
15:55 1002 29.59 831 24.54 -3.2 26.2 83 -5.7 21.7
16:00 1002 29.59 831 24.54 -3.1 26.3 81 -5.9 21.4
16:05 1002 29.59 832 24.57 -3.2 26.3 82 -5.8 21.6
16:10 1003 29.62 832 24.57 -3 26.6 81 -5.8 21.5
16:15 1003 29.62 832 24.57 -2.8 27 80 -5.8 21.5
16:20 1003 29.62 832 24.57 -2.9 26.8 81 -5.7 21.8
16:25 1003 29.62 832 24.57 -3.5 25.7 86 -5.6 21.9
16:30 1003 29.62 832 24.57 -4.3 24.3 88 -5.9 21.4
16:35 1003 29.62 832 24.57 -4 24.8 87 -5.8 21.5
16:40 1003 29.62 832 24.57 -3.8 25.1 86 -5.9 21.4
16:45 1003 29.62 832 24.57 -3.7 25.4 84 -6 21.3
16:50 1003 29.62 832 24.57 -3.5 25.6 84 -5.9 21.4
16:55 1003 29.62 832 24.57 -3.5 25.7 84 -5.9 21.4
17:00 1003 29.62 832 24.57 -3.5 25.7 84 -5.9 21.4
17:05 1003 29.62 833 24.6 -3.6 25.4 85 -5.9 21.4
17:10 1003 29.62 833 24.6 -3.8 25.2 85 -5.9 21.3
17:15 1004 29.65 833 24.6 -4.1 24.6 86 -6.1 21
17:20 1004 29.65 833 24.6 -4.4 24.2 88 -6.1 21
17:25 1004 29.65 833 24.6 -4.4 24.1 89 -6 21.2
17:30 1004 29.65 833 24.6 -4.7 23.5 91 -6 21.1
17:35 1004 29.65 833 24.6 -4.8 23.4 90 -6.1 21
17:40 1004 29.65 833 24.6 -4.9 23.2 92 -6 21.2
17:45 1004 29.65 833 24.6 -4.8 23.3 94 -5.7 21.7
17:50 1004 29.65 833 24.6 -4.5 23.9 92 -5.6 21.9
17:55 1004 29.65 833 24.6 -4.4 24.1 92 -5.4 22.2
18:00 1004 29.65 833 24.6 -4.7 23.6 93 -5.6 21.9
18:05 1004 29.65 833 24.6 -4.9 23.1 94 -5.8 21.6
18:10 1004 29.65 833 24.6 -5.1 22.8 93 -6.1 21.1
18:15 1004 29.65 833 24.6 -5.3 22.4 94 -6.2 20.9
18:20 1004 29.65 833 24.6 -5.3 22.5 93 -6.2 20.9
18:25 1004 29.65 834 24.63 -5.1 22.8 93 -6 21.1
18:30 1004 29.65 834 24.63 -4.9 23.2 92 -6 21.2
18:35 1004 29.65 834 24.63 -4.9 23.1 91 -6.1 21
18:40 1004 29.65 834 24.63 -5.1 22.8 92 -6.2 20.8
18:45 1004 29.65 834 24.63 -5.1 22.9 93 -6.1 21.1
18:50 1004 29.65 834 24.63 -5 23.1 92 -6 21.1
18:55 1004 29.65 834 24.63 -5 23 92 -6.2 20.9
19:00 1004 29.65 834 24.63 -4.8 23.3 90 -6.2 20.8
19:05 1004 29.65 834 24.63 -4.9 23.1 91 -6.2 20.8
19:10 1005 29.68 834 24.63 -4.8 23.3 90 -6.2 20.8
19:15 1005 29.68 834 24.63 -4.8 23.4 90 -6.2 20.8
19:20 1005 29.68 834 24.63 -4.9 23.1 89 -6.4 20.4
19:25 1005 29.68 834 24.63 -4.9 23.1 88 -6.6 20.2
19:30 1005 29.68 834 24.63 -5 23 88 -6.6 20
19:35 1005 29.68 834 24.63 -5 23.1 88 -6.6 20.1
19:40 1005 29.68 834 24.63 -4.9 23.1 88 -6.6 20.2
19:45 1005 29.68 834 24.63 -5 22.9 89 -6.5 20.2
19:50 1005 29.68 834 24.63 -5.1 22.8 90 -6.5 20.3
19:55 1005 29.68 834 24.63 -5.1 22.9 90 -6.4 20.4
20:00 1005 29.68 834 24.63 -5.1 22.9 90 -6.4 20.4
20:05 1005 29.68 834 24.63 -5.1 22.8 90 -6.5 20.4
20:10 1005 29.68 834 24.63 -5 23 90 -6.5 20.3
20:15 1005 29.68 834 24.63 -5.3 22.4 90 -6.7 20
20:20 1005 29.68 834 24.63 -5.9 21.4 94 -6.7 19.9
20:25 1005 29.68 834 24.63 -5.9 21.4 94 -6.7 19.9
20:30 1005 29.68 834 24.63 -5.9 21.4 93 -6.8 19.7
20:35 1005 29.68 834 24.63 -5.8 21.5 92 -6.9 19.5
20:40 1005 29.68 834 24.63 -6.3 20.7 94 -7.2 19.1
20:45 1005 29.68 834 24.63 -6.2 20.8 93 -7.2 19.1
20:50 1005 29.68 834 24.63 -6.2 20.9 92 -7.3 18.8
20:55 1005 29.68 834 24.63 -5.6 22 88 -7.2 19.1
21:00 1005 29.68 834 24.63 -5.2 22.6 87 -7 19.3
21:05 1005 29.68 834 24.63 -5.1 22.8 85 -7.2 19
21:10 1005 29.68 834 24.63 -5.5 22.1 88 -7.2 19.1
21:15 1005 29.68 834 24.63 -5.2 22.6 87 -7.1 19.3
21:20 1005 29.68 834 24.63 -5.8 21.5 86 -7.8 17.9
21:25 1005 29.68 834 24.63 -6.4 20.6 86 -8.3 17.1
21:30 1005 29.68 834 24.63 -6.6 20 87 -8.5 16.7
21:35 1005 29.68 834 24.63 -6.7 20 87 -8.5 16.6
21:40 1005 29.68 834 24.63 -6.6 20.1 86 -8.6 16.6
21:45 1005 29.68 834 24.63 -6.8 19.7 87 -8.6 16.5
21:50 1005 29.68 834 24.63 -7 19.3 88 -8.8 16.2
21:55 1005 29.68 834 24.63 -7 19.4 89 -8.6 16.6
22:00 1005 29.68 834 24.63 -6.7 19.9 87 -8.6 16.6
22:05 1005 29.68 834 24.63 -6.3 20.7 87 -8.1 17.4
22:10 1005 29.68 834 24.63 -6.5 20.4 90 -7.9 17.8
22:15 1005 29.68 834 24.63 -6.5 20.4 90 -7.9 17.9
22:20 1005 29.68 834 24.63 -6.7 19.9 88 -8.3 17
22:25 1005 29.68 834 24.63 -7 19.3 91 -8.3 17.1
22:30 1005 29.68 834 24.63 -7 19.4 90 -8.3 17.1
22:35 1005 29.68 834 24.63 -7.1 19.3 90 -8.4 16.8
22:40 1005 29.68 834 24.63 -7.1 19.3 90 -8.5 16.7
22:45 1005 29.68 834 24.63 -7.1 19.3 90 -8.5 16.7
22:50 1005 29.68 834 24.63 -7.1 19.3 88 -8.7 16.4
22:55 1005 29.68 834 24.63 -7.3 18.9 90 -8.7 16.4
23:00 1005 29.68 834 24.63 -7.3 18.8 90 -8.6 16.5
23:05 1005 29.68 834 24.63 -7.4 18.7 92 -8.5 16.7
23:10 1005 29.68 834 24.63 -7.2 19.1 91 -8.4 16.8
23:15 1005 29.68 834 24.63 -6.8 19.7 91 -8.1 17.4
23:20 1005 29.68 834 24.63 -6.7 20 88 -8.3 17
23:25 1005 29.68 834 24.63 -7.2 19.1 90 -8.6 16.6
23:30 1005 29.68 834 24.63 -7.2 19.1 91 -8.3 17
23:35 1005 29.68 834 24.63 -6.6 20.1 89 -8.1 17.4
23:40 1005 29.68 834 24.63 -6.1 21 85 -8.3 17.1
23:45 1005 29.68 834 24.63 -5.6 21.9 82 -8.2 17.2
23:50 1005 29.68 834 24.63 -5.5 22.1 81 -8.4 17
23:55 1005 29.68 834 24.63 -5.6 21.9 80 -8.5 16.7
24:00 1005 29.68 834 24.63 -6 21.1 82 -8.6 16.5